createdAt,value
2023-03-15T00:00:14.293Z,7.05
2023-03-15T00:02:41.953Z,8.26
2023-03-15T00:05:12.874Z,8.05
2023-03-15T00:07:39.746Z,7.87
2023-03-15T00:10:06.710Z,7.79
2023-03-15T00:12:34.497Z,7.93
2023-03-15T00:15:01.697Z,7.84
2023-03-15T00:17:34.838Z,7.65
2023-03-15T00:20:04.758Z,7.55
2023-03-15T00:22:31.658Z,7.74
2023-03-15T00:24:58.761Z,7.59
2023-03-15T00:27:26.502Z,7.11
2023-03-15T00:29:53.229Z,7.28
2023-03-15T00:32:20.727Z,7.05
2023-03-15T00:34:50.129Z,7.20
2023-03-15T00:37:17.271Z,7.15
2023-03-15T00:39:45.573Z,6.29
2023-03-15T00:42:15.704Z,6.99
2023-03-15T00:44:45.365Z,6.58
2023-03-15T00:47:12.701Z,6.72
2023-03-15T00:49:40.597Z,7.05
2023-03-15T00:52:08.016Z,6.79
2023-03-15T00:54:35.185Z,7.33
2023-03-15T00:57:04.276Z,7.42
2023-03-15T00:59:34.911Z,7.17
2023-03-15T01:02:05.835Z,7.13
2023-03-15T01:04:33.953Z,7.35
2023-03-15T01:07:01.210Z,7.15
2023-03-15T01:09:30.008Z,7.74
2023-03-15T01:11:56.714Z,7.07
2023-03-15T01:14:23.953Z,6.94
2023-03-15T01:16:51.082Z,6.59
2023-03-15T01:19:18.789Z,7.45
2023-03-15T01:21:47.904Z,7.48
2023-03-15T01:24:15.166Z,7.48
2023-03-15T01:26:41.949Z,7.09
2023-03-15T01:29:10.021Z,6.87
2023-03-15T01:31:37.870Z,6.12
2023-03-15T01:34:05.823Z,6.64
2023-03-15T01:36:32.398Z,6.97
2023-03-15T01:38:58.945Z,7.54
2023-03-15T01:41:27.427Z,7.83
2023-03-15T01:43:54.391Z,7.31
2023-03-15T01:46:34.688Z,7.66
2023-03-15T01:49:09.854Z,7.23
2023-03-15T01:51:43.265Z,6.90
2023-03-15T01:54:43.587Z,6.81
2023-03-15T01:57:11.583Z,6.53
2023-03-15T01:59:40.530Z,7.13
2023-03-15T02:02:08.001Z,7.52
2023-03-15T02:04:38.091Z,7.31
2023-03-15T02:07:06.133Z,6.64
2023-03-15T02:09:39.226Z,7.52
2023-03-15T02:12:06.206Z,7.77
2023-03-15T02:14:34.330Z,7.77
2023-03-15T02:17:01.541Z,7.31
2023-03-15T02:19:43.278Z,6.97
2023-03-15T02:22:13.844Z,7.55
2023-03-15T02:24:43.677Z,7.81
2023-03-15T02:27:11.713Z,6.58
2023-03-15T02:29:39.649Z,7.80
2023-03-15T02:32:06.633Z,7.45
2023-03-15T02:34:33.624Z,7.88
2023-03-15T02:37:00.769Z,7.87
2023-03-15T02:39:28.240Z,7.55
2023-03-15T02:41:57.514Z,7.43
2023-03-15T02:44:37.156Z,7.35
2023-03-15T02:47:06.730Z,7.52
2023-03-15T02:49:36.423Z,7.53
2023-03-15T02:52:03.784Z,7.29
2023-03-15T02:54:34.404Z,6.26
2023-03-15T02:57:02.320Z,7.07
2023-03-15T02:59:29.069Z,6.54
2023-03-15T03:01:56.160Z,7.12
2023-03-15T03:04:22.929Z,7.41
2023-03-15T03:06:49.742Z,7.34
2023-03-15T03:09:17.754Z,7.59
2023-03-15T03:11:45.847Z,6.57
2023-03-15T03:14:15.737Z,6.32
2023-03-15T03:16:43.324Z,6.51
2023-03-15T03:19:14.590Z,6.90
2023-03-15T03:21:43.658Z,6.86
2023-03-15T03:24:12.172Z,6.96
2023-03-15T03:26:39.091Z,7.30
2023-03-15T03:29:07.421Z,6.69
2023-03-15T03:31:35.394Z,7.34
2023-03-15T03:34:02.811Z,6.95
2023-03-15T03:36:29.539Z,6.59
2023-03-15T03:38:57.217Z,7.08
2023-03-15T03:41:24.450Z,7.36
2023-03-15T03:43:51.289Z,8.49
2023-03-15T03:46:19.382Z,8.74
2023-03-15T03:48:45.896Z,8.56
2023-03-15T03:51:14.567Z,8.70
2023-03-15T03:53:43.675Z,8.78
2023-03-15T03:56:11.795Z,8.76
2023-03-15T03:58:38.557Z,8.23
2023-03-15T04:01:05.631Z,7.50
2023-03-15T04:03:32.351Z,8.13
2023-03-15T04:06:00.071Z,7.77
2023-03-15T04:08:27.083Z,8.20
2023-03-15T04:10:54.878Z,8.51
2023-03-15T04:13:21.931Z,8.69
2023-03-15T04:15:48.626Z,8.22
2023-03-15T04:18:15.464Z,8.75
2023-03-15T04:20:47.005Z,7.20
2023-03-15T04:23:15.641Z,7.85
2023-03-15T04:25:42.594Z,8.54
2023-03-15T04:28:10.733Z,8.70
2023-03-15T04:30:37.651Z,8.66
2023-03-15T04:33:05.452Z,8.38
2023-03-15T04:35:36.062Z,8.76
2023-03-15T04:38:04.157Z,8.61
2023-03-15T04:40:35.110Z,8.35
2023-03-15T04:43:05.747Z,8.36
2023-03-15T04:45:33.591Z,8.31
2023-03-15T04:48:02.421Z,8.20
2023-03-15T04:50:30.941Z,8.08
2023-03-15T04:52:58.105Z,8.31
2023-03-15T04:55:24.693Z,8.20
2023-03-15T04:57:51.451Z,8.18
2023-03-15T05:00:18.706Z,8.37
2023-03-15T05:02:54.715Z,7.84
2023-03-15T05:05:24.289Z,7.54
2023-03-15T05:07:51.242Z,7.87
2023-03-15T05:10:19.543Z,7.76
2023-03-15T05:12:46.025Z,7.70
2023-03-15T05:15:13.169Z,7.51
2023-03-15T05:17:40.024Z,7.39
2023-03-15T05:20:13.719Z,7.55
2023-03-15T05:22:41.199Z,7.65
2023-03-15T05:25:08.949Z,7.59
2023-03-15T05:27:37.141Z,7.62
2023-03-15T05:30:05.184Z,7.26
2023-03-15T05:32:35.910Z,7.55
2023-03-15T05:35:03.736Z,7.45
2023-03-15T05:37:32.649Z,7.78
2023-03-15T05:40:01.652Z,7.37
2023-03-15T05:42:29.629Z,7.53
2023-03-15T05:44:57.163Z,7.01
2023-03-15T05:47:24.285Z,7.47
2023-03-15T05:49:50.913Z,6.86
2023-03-15T05:52:19.387Z,7.33
2023-03-15T05:54:46.481Z,7.12
2023-03-15T05:57:14.603Z,7.09
2023-03-15T05:59:43.090Z,7.10
2023-03-15T06:02:12.431Z,6.69
2023-03-15T06:04:40.175Z,6.48
2023-03-15T06:07:07.010Z,7.35
2023-03-15T06:09:33.624Z,7.48
2023-03-15T06:12:01.194Z,7.03
2023-03-15T06:14:28.330Z,6.78
2023-03-15T06:16:56.121Z,7.20
2023-03-15T06:19:23.574Z,7.59
2023-03-15T06:21:52.068Z,7.87
2023-03-15T06:24:18.988Z,7.10
2023-03-15T06:26:45.961Z,7.70
2023-03-15T06:29:12.521Z,7.72
2023-03-15T06:31:38.989Z,7.64
2023-03-15T06:34:06.244Z,8.09
2023-03-15T06:36:33.053Z,8.23
2023-03-15T06:39:03.015Z,7.70
2023-03-15T06:41:29.528Z,8.34
2023-03-15T06:43:56.121Z,8.27
2023-03-15T06:46:23.380Z,8.26
2023-03-15T06:48:50.211Z,7.87
2023-03-15T06:51:17.181Z,8.26
2023-03-15T06:53:44.942Z,8.44
2023-03-15T06:56:12.914Z,8.47
2023-03-15T06:58:40.083Z,8.48
2023-03-15T07:01:08.131Z,8.66
2023-03-15T07:03:34.874Z,9.37
2023-03-15T07:06:01.633Z,8.78
2023-03-15T07:08:28.510Z,8.85
2023-03-15T07:10:55.157Z,9.54
2023-03-15T07:13:23.405Z,9.53
2023-03-15T07:15:54.101Z,9.57
2023-03-15T07:18:21.072Z,9.76
2023-03-15T07:20:49.255Z,8.74
2023-03-15T07:23:16.295Z,8.79
2023-03-15T07:25:54.274Z,8.02
2023-03-15T07:28:21.603Z,7.35
2023-03-15T07:30:54.478Z,6.64
2023-03-15T07:33:22.602Z,5.41
2023-03-15T07:35:50.250Z,6.38
2023-03-15T07:38:17.495Z,6.33
2023-03-15T07:40:44.005Z,6.81
2023-03-15T07:43:10.797Z,8.03
2023-03-15T07:45:37.801Z,8.34
2023-03-15T07:48:04.538Z,7.89
2023-03-15T07:50:30.983Z,7.81
2023-03-15T07:52:57.477Z,8.61
2023-03-15T07:55:24.141Z,8.60
2023-03-15T07:57:53.322Z,8.99
2023-03-15T08:00:20.969Z,8.98
2023-03-15T08:02:48.955Z,8.77
2023-03-15T08:05:19.947Z,9.09
2023-03-15T08:07:47.449Z,9.02
2023-03-15T08:10:15.599Z,8.65
2023-03-15T08:12:43.113Z,8.84
2023-03-15T08:15:11.383Z,8.81
2023-03-15T08:17:39.870Z,8.91
2023-03-15T08:20:08.572Z,8.64
2023-03-15T08:22:36.129Z,8.97
2023-03-15T08:25:04.558Z,8.62
2023-03-15T08:27:31.219Z,8.54
2023-03-15T08:29:58.593Z,8.62
2023-03-15T08:32:25.120Z,8.86
2023-03-15T08:34:53.165Z,8.58
2023-03-15T08:37:20.346Z,8.97
2023-03-15T08:39:47.156Z,9.38
2023-03-15T08:42:14.035Z,9.24
2023-03-15T08:44:40.666Z,8.76
2023-03-15T08:47:08.290Z,9.12
2023-03-15T08:49:35.092Z,9.39
2023-03-15T08:52:01.974Z,9.76
2023-03-15T08:54:28.600Z,9.89
2023-03-15T08:56:55.106Z,9.42
2023-03-15T08:59:31.275Z,9.95
2023-03-15T09:02:00.135Z,9.95
2023-03-15T09:04:27.031Z,10.30
2023-03-15T09:06:54.006Z,10.61
2023-03-15T09:09:20.828Z,9.87
2023-03-15T09:11:47.513Z,10.61
2023-03-15T09:14:13.966Z,9.00
2023-03-15T09:16:40.860Z,8.18
2023-03-15T09:19:07.786Z,8.16
2023-03-15T09:21:34.248Z,8.84
2023-03-15T09:24:01.059Z,9.26
2023-03-15T09:26:29.564Z,9.02
2023-03-15T09:28:56.373Z,8.02
2023-03-15T09:31:25.401Z,8.48
2023-03-15T09:33:52.387Z,8.31
2023-03-15T09:36:21.071Z,9.35
2023-03-15T09:38:49.558Z,8.48
2023-03-15T09:41:34.748Z,9.16
2023-03-15T09:44:04.350Z,8.76
2023-03-15T09:46:34.101Z,9.26
2023-03-15T09:49:06.022Z,9.93
2023-03-15T09:51:35.348Z,9.56
2023-03-15T09:54:05.961Z,9.69
2023-03-15T09:56:38.614Z,9.40
2023-03-15T09:59:06.153Z,8.59
2023-03-15T10:01:36.555Z,9.77
2023-03-15T10:04:08.187Z,9.98
2023-03-15T10:06:37.776Z,9.74
2023-03-15T10:09:12.953Z,10.18
2023-03-15T10:11:58.876Z,9.91
2023-03-15T10:14:45.086Z,10.60
2023-03-15T10:17:13.901Z,8.93
2023-03-15T10:19:45.903Z,9.93
2023-03-15T10:22:25.685Z,11.44
2023-03-15T10:24:59.487Z,10.75
2023-03-15T10:27:34.481Z,10.51
2023-03-15T10:30:01.594Z,9.48
2023-03-15T10:32:50.383Z,10.37
2023-03-15T10:35:27.760Z,11.36
2023-03-15T10:38:03.006Z,10.09
2023-03-15T10:40:46.654Z,10.27
2023-03-15T10:43:21.047Z,10.37
2023-03-15T10:45:58.929Z,10.53
2023-03-15T10:48:27.322Z,10.54
2023-03-15T10:50:58.363Z,10.21
2023-03-15T10:53:25.623Z,10.93
2023-03-15T10:56:02.538Z,10.48
2023-03-15T10:58:39.109Z,10.91
2023-03-15T11:01:10.514Z,10.79
2023-03-15T11:03:39.039Z,10.98
2023-03-15T11:06:19.467Z,11.28
2023-03-15T11:08:46.041Z,11.64
2023-03-15T11:11:12.501Z,12.22
2023-03-15T11:13:43.015Z,11.89
2023-03-15T11:16:15.880Z,12.33
2023-03-15T11:18:55.986Z,12.48
2023-03-15T11:21:24.032Z,11.86
2023-03-15T11:23:51.685Z,12.10
2023-03-15T11:26:33.400Z,12.36
2023-03-15T11:29:13.435Z,12.56
2023-03-15T11:31:40.118Z,12.80
2023-03-15T11:34:09.291Z,12.84
2023-03-15T11:36:40.202Z,12.27
2023-03-15T11:39:09.036Z,9.62
2023-03-15T11:41:40.960Z,10.29
2023-03-15T11:44:16.506Z,10.52
2023-03-15T11:46:45.778Z,10.60
2023-03-15T11:49:13.510Z,10.86
2023-03-15T11:51:40.035Z,12.72
2023-03-15T11:54:11.328Z,12.81
2023-03-15T11:56:44.127Z,12.34
2023-03-15T11:59:16.359Z,10.05
2023-03-15T12:01:47.104Z,10.28
2023-03-15T12:04:32.441Z,10.25
2023-03-15T12:07:04.500Z,10.00
2023-03-15T12:09:37.697Z,9.22
2023-03-15T12:12:27.574Z,8.36
2023-03-15T12:15:13.656Z,9.81
2023-03-15T12:17:43.462Z,9.08
2023-03-15T12:20:19.551Z,8.99
2023-03-15T12:22:49.047Z,9.35
2023-03-15T12:25:16.922Z,10.69
2023-03-15T12:27:47.720Z,9.90
2023-03-15T12:30:23.004Z,9.72
2023-03-15T12:32:52.798Z,9.07
2023-03-15T12:35:21.620Z,10.44
2023-03-15T12:37:49.155Z,10.24
2023-03-15T12:40:16.156Z,10.71
2023-03-15T12:42:46.755Z,10.97
2023-03-15T12:45:16.825Z,11.07
2023-03-15T12:47:50.904Z,11.24
2023-03-15T12:50:37.108Z,11.36
2023-03-15T12:53:07.253Z,12.46
2023-03-15T12:55:35.713Z,10.99
2023-03-15T12:58:04.102Z,11.11
2023-03-15T13:00:33.678Z,11.00
2023-03-15T13:03:08.958Z,9.95
2023-03-15T13:06:03.471Z,10.03
2023-03-15T13:08:31.866Z,9.48
2023-03-15T13:11:17.260Z,9.77
2023-03-15T13:13:53.348Z,8.92
2023-03-15T13:16:39.051Z,8.45
2023-03-15T13:19:24.387Z,7.80
2023-03-15T13:22:02.208Z,8.31
2023-03-15T13:24:37.822Z,8.05
2023-03-15T13:27:08.758Z,7.79
2023-03-15T13:29:35.327Z,8.52
2023-03-15T13:32:07.271Z,9.20
2023-03-15T13:34:35.115Z,8.85
2023-03-15T13:37:04.665Z,7.88
2023-03-15T13:39:32.372Z,7.78
2023-03-15T13:41:58.891Z,9.29
2023-03-15T13:44:26.143Z,8.32
2023-03-15T13:46:53.495Z,8.14
2023-03-15T13:49:23.719Z,9.37
2023-03-15T13:51:52.284Z,9.62
2023-03-15T13:54:23.809Z,10.12
2023-03-15T13:56:56.837Z,10.20
2023-03-15T13:59:32.939Z,9.57
2023-03-15T14:02:00.193Z,8.46
2023-03-15T14:04:27.059Z,7.93
2023-03-15T14:07:04.790Z,6.86
2023-03-15T14:09:31.422Z,8.16
2023-03-15T14:12:05.842Z,7.79
2023-03-15T14:14:36.090Z,7.96
2023-03-15T14:17:08.718Z,8.59
2023-03-15T14:19:36.087Z,8.39
2023-03-15T14:22:15.789Z,7.09
2023-03-15T14:24:43.513Z,6.55
2023-03-15T14:27:30.702Z,6.44
2023-03-15T14:30:01.812Z,6.31
2023-03-15T14:32:30.222Z,6.41
2023-03-15T14:35:08.023Z,6.70
2023-03-15T14:37:43.098Z,7.20
2023-03-15T14:40:23.334Z,7.53
2023-03-15T14:42:50.822Z,7.95
2023-03-15T14:45:18.500Z,7.82
2023-03-15T14:47:56.035Z,8.83
2023-03-15T14:50:24.108Z,8.69
2023-03-15T14:52:51.522Z,9.23
2023-03-15T14:55:27.741Z,8.57
2023-03-15T14:57:54.244Z,9.54
2023-03-15T15:00:20.843Z,9.47
2023-03-15T15:02:55.654Z,9.88
2023-03-15T15:05:27.186Z,9.58
2023-03-15T15:07:56.753Z,9.73
2023-03-15T15:10:24.537Z,10.73
2023-03-15T15:13:04.853Z,10.03
2023-03-15T15:15:43.706Z,9.92
2023-03-15T15:18:14.190Z,8.64
2023-03-15T15:20:42.233Z,9.23
2023-03-15T15:23:19.721Z,9.35
2023-03-15T15:25:48.135Z,8.37
2023-03-15T15:28:27.250Z,8.39
2023-03-15T15:31:02.278Z,8.03
2023-03-15T15:33:28.749Z,8.51
2023-03-15T15:35:57.959Z,8.48
2023-03-15T15:38:28.420Z,8.21
2023-03-15T15:40:54.846Z,9.15
2023-03-15T15:43:22.456Z,8.70
2023-03-15T15:45:49.736Z,8.11
2023-03-15T15:48:19.428Z,7.49
2023-03-15T15:50:47.490Z,8.84
2023-03-15T15:53:18.294Z,7.65
2023-03-15T15:55:47.786Z,9.46
2023-03-15T15:58:15.294Z,9.48
2023-03-15T16:00:41.975Z,8.75
2023-03-15T16:03:17.460Z,9.02
2023-03-15T16:05:44.517Z,9.37
2023-03-15T16:08:22.383Z,8.85
2023-03-15T16:10:50.476Z,9.91
2023-03-15T16:13:18.675Z,8.79
2023-03-15T16:15:47.059Z,10.36
2023-03-15T16:18:14.514Z,9.09
2023-03-15T16:20:43.333Z,8.85
2023-03-15T16:23:16.044Z,8.59
2023-03-15T16:25:44.891Z,8.88
2023-03-15T16:28:13.633Z,8.64
2023-03-15T16:30:41.075Z,9.17
2023-03-15T16:33:18.058Z,10.38
2023-03-15T16:35:45.827Z,10.05
2023-03-15T16:38:15.929Z,9.27
2023-03-15T16:40:48.058Z,9.93
2023-03-15T16:43:15.241Z,10.00
2023-03-15T16:45:42.618Z,10.23
2023-03-15T16:48:10.054Z,9.15
2023-03-15T16:50:40.016Z,9.44
2023-03-15T16:53:11.400Z,9.47
2023-03-15T16:55:38.651Z,10.39
2023-03-15T16:58:13.731Z,9.52
2023-03-15T17:00:44.637Z,9.16
2023-03-15T17:03:29.263Z,9.13
2023-03-15T17:05:57.092Z,9.14
2023-03-15T17:08:28.277Z,10.41
2023-03-15T17:10:54.876Z,9.53
2023-03-15T17:13:27.632Z,8.91
2023-03-15T17:15:59.016Z,9.62
2023-03-15T17:18:28.883Z,9.64
2023-03-15T17:20:58.427Z,9.70
2023-03-15T17:23:26.540Z,9.14
2023-03-15T17:26:09.469Z,9.00
2023-03-15T17:28:37.452Z,8.46
2023-03-15T17:31:23.990Z,9.57
2023-03-15T17:33:55.169Z,9.73
2023-03-15T17:36:25.648Z,10.27
2023-03-15T17:38:55.045Z,10.73
2023-03-15T17:41:32.486Z,10.24
2023-03-15T17:44:00.440Z,9.85
2023-03-15T17:46:31.213Z,9.74
2023-03-15T17:49:00.101Z,9.37
2023-03-15T17:51:36.832Z,10.09
2023-03-15T17:54:13.022Z,10.25
2023-03-15T17:56:41.590Z,9.44
2023-03-15T17:59:11.007Z,8.95
2023-03-15T18:01:47.151Z,9.56
2023-03-15T18:04:17.516Z,9.82
2023-03-15T18:06:46.454Z,9.57
2023-03-15T18:09:16.543Z,10.09
2023-03-15T18:11:46.074Z,10.19
2023-03-15T18:14:24.811Z,9.05
2023-03-15T18:16:54.607Z,10.00
2023-03-15T18:19:21.984Z,10.03
2023-03-15T18:21:49.916Z,10.20
2023-03-15T18:24:17.590Z,10.17
2023-03-15T18:26:45.440Z,10.27
2023-03-15T18:29:12.757Z,10.16
2023-03-15T18:31:40.957Z,10.47
2023-03-15T18:34:17.532Z,10.58
2023-03-15T18:36:45.813Z,10.77
2023-03-15T18:39:13.358Z,10.55
2023-03-15T18:41:40.628Z,10.22
2023-03-15T18:44:08.101Z,10.28
2023-03-15T18:46:36.830Z,10.26
2023-03-15T18:49:07.735Z,9.96
2023-03-15T18:51:35.469Z,9.82
2023-03-15T18:54:03.778Z,9.28
2023-03-15T18:56:34.741Z,9.05
2023-03-15T18:59:02.880Z,9.68
2023-03-15T19:01:30.564Z,9.30
2023-03-15T19:03:58.824Z,9.47
2023-03-15T19:06:27.395Z,9.24
2023-03-15T19:08:55.430Z,9.37
2023-03-15T19:11:24.462Z,9.63
2023-03-15T19:14:04.628Z,9.29
2023-03-15T19:16:32.406Z,9.06
2023-03-15T19:18:59.829Z,9.40
2023-03-15T19:21:30.259Z,9.12
2023-03-15T19:23:58.331Z,9.58
2023-03-15T19:26:26.732Z,9.59
2023-03-15T19:28:55.417Z,9.24
2023-03-15T19:31:24.064Z,9.53
2023-03-15T19:33:51.378Z,9.55
2023-03-15T19:36:20.096Z,9.27
2023-03-15T19:38:56.430Z,9.24
2023-03-15T19:41:23.848Z,9.45
2023-03-15T19:43:53.205Z,8.82
2023-03-15T19:46:20.895Z,8.97
2023-03-15T19:48:48.553Z,9.12
2023-03-15T19:51:17.501Z,9.18
2023-03-15T19:53:44.926Z,9.24
2023-03-15T19:56:12.611Z,9.03
2023-03-15T19:58:41.336Z,8.90
2023-03-15T20:01:09.893Z,9.17
2023-03-15T20:03:40.752Z,9.24
2023-03-15T20:06:14.855Z,9.30
2023-03-15T20:08:43.326Z,9.12
2023-03-15T20:11:15.761Z,9.09
2023-03-15T20:13:45.051Z,9.21
2023-03-15T20:16:13.804Z,9.15
2023-03-15T20:18:41.284Z,8.90
2023-03-15T20:21:08.353Z,8.95
2023-03-15T20:23:37.360Z,9.02
2023-03-15T20:26:11.589Z,9.00
2023-03-15T20:28:39.765Z,9.14
2023-03-15T20:31:16.958Z,9.18
2023-03-15T20:33:44.247Z,8.82
2023-03-15T20:36:11.529Z,9.00
2023-03-15T20:38:39.372Z,8.92
2023-03-15T20:41:06.955Z,8.99
2023-03-15T20:43:34.863Z,8.87
2023-03-15T20:46:04.433Z,8.92
2023-03-15T20:48:37.268Z,8.76
2023-03-15T20:51:05.448Z,8.51
2023-03-15T20:53:35.600Z,8.87
2023-03-15T20:56:04.148Z,8.70
2023-03-15T20:58:31.808Z,8.62
2023-03-15T21:01:08.008Z,8.35
2023-03-15T21:03:36.074Z,8.81
2023-03-15T21:06:04.932Z,8.68
2023-03-15T21:08:32.495Z,8.55
2023-03-15T21:11:08.075Z,8.29
2023-03-15T21:13:35.160Z,8.36
2023-03-15T21:16:04.597Z,8.21
2023-03-15T21:18:40.472Z,8.27
2023-03-15T21:21:08.198Z,8.23
2023-03-15T21:23:43.336Z,8.39
2023-03-15T21:26:11.506Z,8.10
2023-03-15T21:28:40.097Z,8.31
2023-03-15T21:31:07.388Z,8.61
2023-03-15T21:33:34.501Z,8.13
2023-03-15T21:36:30.576Z,8.02
2023-03-15T21:38:57.498Z,8.23
2023-03-15T21:41:25.401Z,8.24
2023-03-15T21:43:52.002Z,7.92
2023-03-15T21:46:22.329Z,7.48
2023-03-15T21:48:49.549Z,8.28
2023-03-15T21:51:36.849Z,8.24
2023-03-15T21:54:05.068Z,8.12
2023-03-15T21:56:32.885Z,8.14
2023-03-15T21:58:59.679Z,8.35
2023-03-15T22:01:35.151Z,8.02
2023-03-15T22:04:02.482Z,8.41
2023-03-15T22:06:30.185Z,8.48
2023-03-15T22:09:00.449Z,8.29
2023-03-15T22:11:28.644Z,8.27
2023-03-15T22:13:55.985Z,7.93
2023-03-15T22:16:23.720Z,8.02
2023-03-15T22:18:56.496Z,8.20
2023-03-15T22:21:24.204Z,8.00
2023-03-15T22:23:51.598Z,8.07
2023-03-15T22:26:22.619Z,7.80
2023-03-15T22:28:49.979Z,8.05
2023-03-15T22:31:17.195Z,7.77
2023-03-15T22:33:44.563Z,7.84
2023-03-15T22:36:19.748Z,8.06
2023-03-15T22:38:50.289Z,8.26
2023-03-15T22:41:20.055Z,8.03
2023-03-15T22:43:47.294Z,8.23
2023-03-15T22:46:15.559Z,8.06
2023-03-15T22:48:43.504Z,7.85
2023-03-15T22:51:14.599Z,8.14
2023-03-15T22:53:42.978Z,8.20
2023-03-15T22:56:10.969Z,8.21
2023-03-15T22:58:39.237Z,8.12
2023-03-15T23:01:06.728Z,8.00
2023-03-15T23:03:34.149Z,7.76
2023-03-15T23:06:04.155Z,8.02
2023-03-15T23:08:35.073Z,7.82
2023-03-15T23:11:02.633Z,8.12
2023-03-15T23:13:32.298Z,8.29
2023-03-15T23:16:04.473Z,8.12
2023-03-15T23:18:37.079Z,8.09
2023-03-15T23:21:05.668Z,8.04
2023-03-15T23:23:36.540Z,8.06
2023-03-15T23:26:04.792Z,7.86
2023-03-15T23:28:32.759Z,8.00
2023-03-15T23:31:04.599Z,7.77
2023-03-15T23:33:37.205Z,7.74
2023-03-15T23:36:09.753Z,7.83
2023-03-15T23:38:37.682Z,7.74
2023-03-15T23:41:05.966Z,7.47
2023-03-15T23:43:34.710Z,7.45
2023-03-15T23:46:05.129Z,7.47
2023-03-15T23:48:35.756Z,7.50
2023-03-15T23:51:03.384Z,7.38
2023-03-15T23:53:31.076Z,7.45
2023-03-15T23:55:59.408Z,7.51
2023-03-15T23:58:27.914Z,7.42
